Graph méteo. Réactualisation: 2021-04-12 22:29:28
Données metar brut: (cliquez sur les données pour être redirigé vers la source des données)
LFBL 122130Z AUTO 02004KT CAVOK 04/M04 Q1029 NOSIG [LFBL: Aéroport de Limoges]
Explications pour une compréhension des données Metar
=> Sur un mois et un an
rrdtool temperature (données metar) sur un jour rrdtool temperature (données metar) sur deux semaines

rrdtool pression (données metar) sur un jour rrdtool pression (données metar) sur deux semaines

rrdtool humidite (données metar) sur un jour rrdtool humidite (données metar) sur deux semaines

rrdtool vitesse du vent (données metar) sur un jour rrdtool vitesse du vent (données metar) sur deux semaines
rrdtool rafales de vent (données metar) sur un jour rrdtool rafales de vent (données metar) sur deux semaines


Remi Suinot
version: Date: 07 fev 2018 - Rev: 07 mars 2019